Aérodrome :
LOGIN :

S'inscrire | Disclaimer

   EN    FR    IT 

 










Légende :    VFR   VFR Marginal   IFR   IFR Intensif   IFR Très Intensif
Visi : 
Plafond : 
>= 8 km
>= 3000ft
5 à 8 km
1000 à 3000 ft
1500m à 5 km
500 à 1000 ft
800 à 1500m
200 à 500 ft
< 800m
< 200 ft
Symboles :   Orages  Brouillard  Fortes neiges  Fortes précipitations  Vent > 20 kt
SIGMETs :   Divers  Orages  Givrage  Turbulence  Onde Orograph.  Cendres Volcan.






- Altitude de l'aérodrome : 1020 ft
- Code IATA : ILZ


LZZI - Žilina

DERNIER METAR :
  • 270600Z 11003KT 080V150 6000 OVC005 M03/M04 Q1018

METARs EXPIRÉS :
  • 270530Z VRB02KT 6000 OVC004 M03/M04 Q1018
  • 270500Z VRB01KT 6000 OVC004 M02/M03 Q1018
  • 270430Z VRB01KT 6000 OVC005 M02/M04 Q1018
  • 270400Z VRB01KT 6000 OVC005 M02/M04 Q1018
  • 270330Z VRB02KT 6000 OVC005 M02/M04 Q1019

TAF TAF LZZI
Valide du 27 à 06h jusqu'au 27 à 15h UTC


270500Z 2706/2715 VRB02KT 6000 OVC006
TEMPO 2706/2710 3500 BR OVC004
BECMG 2710/2712 BKN014



MET'MAP, la Météo Aéronautique d'un coup d'oeil ! - Copyright ORBIFLY Décembre 2007 - Disclaimer

ORBIFLY MET'MAP TEAM :

Programmation & Développement : Alexandra Zaïnal
Sur une idée originale de : Baudouin d'Aumeries
Assistance à la programmation : Marc-Olivier Méhu
Soutien technique & logistique : Manuel Goepfert

Contact : metmap@orbifly.com




SOURCES & CREDITS :

   NOAA